Somerset, Wisconsin
Current Conditions -  °F | °C
As of 12:35 AM on Friday 31 Oct 2014 (Local Time) from KRNH Reporting Station
Clear Clear  
Wind Chill: 18°   Ceiling: Unl
Heat Index: 30°   Visibility: 10mi
Dew Point: 17°   Wind: 16mph
Humidity: 58%   Direction: 340°NNW
Pressure: 30.35"   Gusts: 24mph
Location:  45.12°N, 92.67°W
Report Text: KRNH 310535Z AUTO 34014G21KT 10SM CLR M01/M09 A3035 RMK AO2 T10131086
Loading
Personal Weather Stations






























Interactive Weather Map
Tropical Storm Tracking
New forecast layout! Learn more

10-Day Weather Forecast

Advertisements
Track Severe Weather on mobile